sensor_id;sensor_type;location;lat;lon;timestamp;temperature;humidity
58096;DHT22;43908;53.038;6.666;2022-10-16T00:02:13;11.10;99.90
58096;DHT22;43908;53.038;6.666;2022-10-16T00:04:39;11.10;99.90
58096;DHT22;43908;53.038;6.666;2022-10-16T00:07:04;11.10;99.90
58096;DHT22;43908;53.038;6.666;2022-10-16T00:09:30;11.00;99.90
58096;DHT22;43908;53.038;6.666;2022-10-16T00:11:55;11.00;99.90
58096;DHT22;43908;53.038;6.666;2022-10-16T00:14:21;11.10;99.90
58096;DHT22;43908;53.038;6.666;2022-10-16T00:16:46;11.10;99.90
58096;DHT22;43908;53.038;6.666;2022-10-16T00:19:12;11.10;99.90
58096;DHT22;43908;53.038;6.666;2022-10-16T00:21:41;11.10;99.90
58096;DHT22;43908;53.038;6.666;2022-10-16T00:24:08;11.10;99.90
58096;DHT22;43908;53.038;6.666;2022-10-16T00:26:35;11.00;99.90
58096;DHT22;43908;53.038;6.666;2022-10-16T00:29:01;11.00;99.90
58096;DHT22;43908;53.038;6.666;2022-10-16T00:31:26;11.00;99.90
58096;DHT22;43908;53.038;6.666;2022-10-16T00:33:52;11.10;99.90
58096;DHT22;43908;53.038;6.666;2022-10-16T00:36:19;11.10;99.90
58096;DHT22;43908;53.038;6.666;2022-10-16T00:38:45;11.20;99.90
58096;DHT22;43908;53.038;6.666;2022-10-16T00:41:12;11.20;99.90
58096;DHT22;43908;53.038;6.666;2022-10-16T00:43:39;11.20;99.90
58096;DHT22;43908;53.038;6.666;2022-10-16T00:46:16;11.20;99.90
58096;DHT22;43908;53.038;6.666;2022-10-16T00:51:29;11.20;99.90
58096;DHT22;43908;53.038;6.666;2022-10-16T00:53:55;11.20;99.90
58096;DHT22;43908;53.038;6.666;2022-10-16T00:56:21;11.20;99.90
58096;DHT22;43908;53.038;6.666;2022-10-16T00:58:47;11.20;99.90
58096;DHT22;43908;53.038;6.666;2022-10-16T01:01:12;11.30;99.90
58096;DHT22;43908;53.038;6.666;2022-10-16T01:03:38;11.20;99.90
58096;DHT22;43908;53.038;6.666;2022-10-16T01:06:19;11.30;99.90
58096;DHT22;43908;53.038;6.666;2022-10-16T01:08:53;11.30;99.90
58096;DHT22;43908;53.038;6.666;2022-10-16T01:11:38;11.30;99.90
58096;DHT22;43908;53.038;6.666;2022-10-16T01:16:55;11.30;99.90
58096;DHT22;43908;53.038;6.666;2022-10-16T01:19:32;11.30;99.90
58096;DHT22;43908;53.038;6.666;2022-10-16T01:22:01;11.30;99.90
58096;DHT22;43908;53.038;6.666;2022-10-16T01:24:41;11.30;99.90
58096;DHT22;43908;53.038;6.666;2022-10-16T01:27:09;11.20;99.90
58096;DHT22;43908;53.038;6.666;2022-10-16T01:32:27;11.20;99.90
58096;DHT22;43908;53.038;6.666;2022-10-16T01:34:55;11.30;99.90
58096;DHT22;43908;53.038;6.666;2022-10-16T01:39:55;11.30;99.90
58096;DHT22;43908;53.038;6.666;2022-10-16T01:42:31;11.30;99.90
58096;DHT22;43908;53.038;6.666;2022-10-16T01:44:59;11.30;99.90
58096;DHT22;43908;53.038;6.666;2022-10-16T01:47:26;11.30;99.90
58096;DHT22;43908;53.038;6.666;2022-10-16T01:49:52;11.30;99.90
58096;DHT22;43908;53.038;6.666;2022-10-16T01:52:19;11.30;99.90
58096;DHT22;43908;53.038;6.666;2022-10-16T01:54:46;11.40;99.90
58096;DHT22;43908;53.038;6.666;2022-10-16T01:57:13;11.40;99.90
58096;DHT22;43908;53.038;6.666;2022-10-16T01:59:42;11.40;99.90
58096;DHT22;43908;53.038;6.666;2022-10-16T02:02:09;11.40;99.90
58096;DHT22;43908;53.038;6.666;2022-10-16T02:04:44;11.40;99.90
58096;DHT22;43908;53.038;6.666;2022-10-16T02:07:10;11.40;99.90
58096;DHT22;43908;53.038;6.666;2022-10-16T02:09:36;11.40;99.90
58096;DHT22;43908;53.038;6.666;2022-10-16T02:12:05;11.40;99.90
58096;DHT22;43908;53.038;6.666;2022-10-16T02:14:32;11.40;99.90
58096;DHT22;43908;53.038;6.666;2022-10-16T02:16:57;11.40;99.90
58096;DHT22;43908;53.038;6.666;2022-10-16T02:19:23;11.40;99.90
58096;DHT22;43908;53.038;6.666;2022-10-16T02:21:56;11.50;99.90
58096;DHT22;43908;53.038;6.666;2022-10-16T02:24:26;11.50;99.90
58096;DHT22;43908;53.038;6.666;2022-10-16T02:26:57;11.50;99.90
58096;DHT22;43908;53.038;6.666;2022-10-16T02:29:26;11.50;99.90
58096;DHT22;43908;53.038;6.666;2022-10-16T02:31:56;11.60;99.90
58096;DHT22;43908;53.038;6.666;2022-10-16T02:34:24;11.70;99.90
58096;DHT22;43908;53.038;6.666;2022-10-16T02:36:50;11.70;99.90
58096;DHT22;43908;53.038;6.666;2022-10-16T02:39:16;11.80;99.90
58096;DHT22;43908;53.038;6.666;2022-10-16T02:41:42;11.80;99.90
58096;DHT22;43908;53.038;6.666;2022-10-16T02:44:07;11.80;99.90
58096;DHT22;43908;53.038;6.666;2022-10-16T02:46:33;11.90;99.90
58096;DHT22;43908;53.038;6.666;2022-10-16T02:48:58;11.80;99.90
58096;DHT22;43908;53.038;6.666;2022-10-16T02:51:24;11.80;99.90
58096;DHT22;43908;53.038;6.666;2022-10-16T02:53:49;11.90;99.90
58096;DHT22;43908;53.038;6.666;2022-10-16T02:56:15;11.90;99.90
58096;DHT22;43908;53.038;6.666;2022-10-16T02:58:40;11.90;99.90
58096;DHT22;43908;53.038;6.666;2022-10-16T03:01:06;11.90;99.90
58096;DHT22;43908;53.038;6.666;2022-10-16T03:03:31;11.90;99.90
58096;DHT22;43908;53.038;6.666;2022-10-16T03:05:57;12.00;99.90
58096;DHT22;43908;53.038;6.666;2022-10-16T03:08:22;12.00;99.90
58096;DHT22;43908;53.038;6.666;2022-10-16T03:10:50;12.10;99.90
58096;DHT22;43908;53.038;6.666;2022-10-16T03:13:16;12.00;99.90
58096;DHT22;43908;53.038;6.666;2022-10-16T03:15:41;12.10;99.90
58096;DHT22;43908;53.038;6.666;2022-10-16T03:18:07;12.00;99.90
58096;DHT22;43908;53.038;6.666;2022-10-16T03:20:32;12.00;99.90
58096;DHT22;43908;53.038;6.666;2022-10-16T03:22:58;12.10;99.90
58096;DHT22;43908;53.038;6.666;2022-10-16T03:25:23;12.00;99.90
58096;DHT22;43908;53.038;6.666;2022-10-16T03:27:49;12.00;99.90
58096;DHT22;43908;53.038;6.666;2022-10-16T03:30:14;12.00;99.90
58096;DHT22;43908;53.038;6.666;2022-10-16T03:32:41;12.00;99.90
58096;DHT22;43908;53.038;6.666;2022-10-16T03:35:07;12.00;99.90
58096;DHT22;43908;53.038;6.666;2022-10-16T03:37:32;11.90;99.90
58096;DHT22;43908;53.038;6.666;2022-10-16T03:39:58;11.90;99.90
58096;DHT22;43908;53.038;6.666;2022-10-16T03:42:24;11.90;99.90
58096;DHT22;43908;53.038;6.666;2022-10-16T03:44:49;11.80;99.90
58096;DHT22;43908;53.038;6.666;2022-10-16T03:47:15;11.90;99.90
58096;DHT22;43908;53.038;6.666;2022-10-16T03:49:41;11.80;99.90
58096;DHT22;43908;53.038;6.666;2022-10-16T03:52:06;11.80;99.90
58096;DHT22;43908;53.038;6.666;2022-10-16T03:54:31;11.80;99.90
58096;DHT22;43908;53.038;6.666;2022-10-16T03:56:57;11.80;99.90
58096;DHT22;43908;53.038;6.666;2022-10-16T03:59:22;11.80;99.90
58096;DHT22;43908;53.038;6.666;2022-10-16T04:01:48;11.80;99.90
58096;DHT22;43908;53.038;6.666;2022-10-16T04:04:13;11.80;99.90
58096;DHT22;43908;53.038;6.666;2022-10-16T04:06:39;11.80;99.90
58096;DHT22;43908;53.038;6.666;2022-10-16T04:09:04;11.80;99.90
58096;DHT22;43908;53.038;6.666;2022-10-16T04:11:30;11.70;99.90
58096;DHT22;43908;53.038;6.666;2022-10-16T04:13:55;11.70;99.90
58096;DHT22;43908;53.038;6.666;2022-10-16T04:16:21;11.70;99.90
58096;DHT22;43908;53.038;6.666;2022-10-16T04:18:46;11.70;99.90
58096;DHT22;43908;53.038;6.666;2022-10-16T04:21:11;11.70;99.90
58096;DHT22;43908;53.038;6.666;2022-10-16T04:23:37;11.60;99.90
58096;DHT22;43908;53.038;6.666;2022-10-16T04:26:02;11.60;99.90
58096;DHT22;43908;53.038;6.666;2022-10-16T04:28:28;11.70;99.90
58096;DHT22;43908;53.038;6.666;2022-10-16T04:30:53;11.70;99.90
58096;DHT22;43908;53.038;6.666;2022-10-16T04:33:19;11.70;99.90
58096;DHT22;43908;53.038;6.666;2022-10-16T04:35:45;11.70;99.90
58096;DHT22;43908;53.038;6.666;2022-10-16T04:38:10;11.70;99.90
58096;DHT22;43908;53.038;6.666;2022-10-16T04:40:35;11.70;99.90
58096;DHT22;43908;53.038;6.666;2022-10-16T04:43:02;11.70;99.90
58096;DHT22;43908;53.038;6.666;2022-10-16T04:45:28;11.60;99.90
58096;DHT22;43908;53.038;6.666;2022-10-16T04:47:56;11.60;99.90
58096;DHT22;43908;53.038;6.666;2022-10-16T04:50:21;11.60;99.90
58096;DHT22;43908;53.038;6.666;2022-10-16T04:52:47;11.70;99.90
58096;DHT22;43908;53.038;6.666;2022-10-16T04:55:12;11.60;99.90
58096;DHT22;43908;53.038;6.666;2022-10-16T04:57:38;11.70;99.90
58096;DHT22;43908;53.038;6.666;2022-10-16T05:00:04;11.70;99.90
58096;DHT22;43908;53.038;6.666;2022-10-16T05:02:29;11.80;99.90
58096;DHT22;43908;53.038;6.666;2022-10-16T05:04:55;11.80;99.90
58096;DHT22;43908;53.038;6.666;2022-10-16T05:07:20;11.80;99.90
58096;DHT22;43908;53.038;6.666;2022-10-16T05:09:46;11.80;99.90
58096;DHT22;43908;53.038;6.666;2022-10-16T05:12:11;11.90;99.90
58096;DHT22;43908;53.038;6.666;2022-10-16T05:14:37;11.90;99.90
58096;DHT22;43908;53.038;6.666;2022-10-16T05:17:02;12.00;99.90
58096;DHT22;43908;53.038;6.666;2022-10-16T05:19:28;11.90;99.90
58096;DHT22;43908;53.038;6.666;2022-10-16T05:21:53;11.90;99.90
58096;DHT22;43908;53.038;6.666;2022-10-16T05:24:19;11.90;99.90
58096;DHT22;43908;53.038;6.666;2022-10-16T05:26:44;11.90;99.90
58096;DHT22;43908;53.038;6.666;2022-10-16T05:29:10;11.90;99.90
58096;DHT22;43908;53.038;6.666;2022-10-16T05:31:35;12.00;99.90
58096;DHT22;43908;53.038;6.666;2022-10-16T05:34:01;12.00;99.90
58096;DHT22;43908;53.038;6.666;2022-10-16T05:36:27;12.00;99.90
58096;DHT22;43908;53.038;6.666;2022-10-16T05:38:52;12.10;99.90
58096;DHT22;43908;53.038;6.666;2022-10-16T05:41:18;12.10;99.90
58096;DHT22;43908;53.038;6.666;2022-10-16T05:43:49;12.10;99.90
58096;DHT22;43908;53.038;6.666;2022-10-16T05:46:15;12.10;99.90
58096;DHT22;43908;53.038;6.666;2022-10-16T05:48:40;12.10;99.90
58096;DHT22;43908;53.038;6.666;2022-10-16T05:51:07;12.10;99.90
58096;DHT22;43908;53.038;6.666;2022-10-16T05:53:34;12.10;99.90
58096;DHT22;43908;53.038;6.666;2022-10-16T05:56:00;12.10;99.90
58096;DHT22;43908;53.038;6.666;2022-10-16T05:58:35;12.10;99.90
58096;DHT22;43908;53.038;6.666;2022-10-16T06:01:04;12.00;99.90
58096;DHT22;43908;53.038;6.666;2022-10-16T06:03:30;12.10;99.90
58096;DHT22;43908;53.038;6.666;2022-10-16T06:05:56;12.00;99.90
58096;DHT22;43908;53.038;6.666;2022-10-16T06:08:22;12.00;99.90
58096;DHT22;43908;53.038;6.666;2022-10-16T06:10:48;12.10;99.90
58096;DHT22;43908;53.038;6.666;2022-10-16T06:13:14;12.10;99.90
58096;DHT22;43908;53.038;6.666;2022-10-16T06:15:40;12.10;99.90
58096;DHT22;43908;53.038;6.666;2022-10-16T06:18:07;12.10;99.90
58096;DHT22;43908;53.038;6.666;2022-10-16T06:20:33;12.20;99.90
58096;DHT22;43908;53.038;6.666;2022-10-16T06:22:59;12.20;99.90
58096;DHT22;43908;53.038;6.666;2022-10-16T06:25:24;12.20;99.90
58096;DHT22;43908;53.038;6.666;2022-10-16T06:27:50;12.20;99.90
58096;DHT22;43908;53.038;6.666;2022-10-16T06:30:15;12.30;99.90
58096;DHT22;43908;53.038;6.666;2022-10-16T06:32:41;12.30;99.90
58096;DHT22;43908;53.038;6.666;2022-10-16T06:35:06;12.30;99.90
58096;DHT22;43908;53.038;6.666;2022-10-16T06:37:32;12.50;99.90
58096;DHT22;43908;53.038;6.666;2022-10-16T06:39:57;12.50;99.90
58096;DHT22;43908;53.038;6.666;2022-10-16T06:42:23;12.50;99.90
58096;DHT22;43908;53.038;6.666;2022-10-16T06:44:48;12.50;99.90
58096;DHT22;43908;53.038;6.666;2022-10-16T06:47:14;12.40;99.90
58096;DHT22;43908;53.038;6.666;2022-10-16T06:49:39;12.40;99.90
58096;DHT22;43908;53.038;6.666;2022-10-16T06:52:05;12.50;99.90
58096;DHT22;43908;53.038;6.666;2022-10-16T06:54:30;12.60;99.90
58096;DHT22;43908;53.038;6.666;2022-10-16T06:56:56;12.60;99.90
58096;DHT22;43908;53.038;6.666;2022-10-16T06:59:21;12.70;99.90
58096;DHT22;43908;53.038;6.666;2022-10-16T07:01:47;12.80;99.90
58096;DHT22;43908;53.038;6.666;2022-10-16T07:04:12;12.80;99.90
58096;DHT22;43908;53.038;6.666;2022-10-16T07:06:38;12.90;99.90
58096;DHT22;43908;53.038;6.666;2022-10-16T07:09:04;12.90;99.90
58096;DHT22;43908;53.038;6.666;2022-10-16T07:11:30;12.90;99.90
58096;DHT22;43908;53.038;6.666;2022-10-16T07:13:56;13.00;99.90
58096;DHT22;43908;53.038;6.666;2022-10-16T07:16:25;12.90;99.90
58096;DHT22;43908;53.038;6.666;2022-10-16T07:18:51;13.00;99.90
58096;DHT22;43908;53.038;6.666;2022-10-16T07:21:23;13.00;99.90
58096;DHT22;43908;53.038;6.666;2022-10-16T07:23:51;13.10;99.90
58096;DHT22;43908;53.038;6.666;2022-10-16T07:26:17;13.10;99.90
58096;DHT22;43908;53.038;6.666;2022-10-16T07:28:42;13.20;99.90
58096;DHT22;43908;53.038;6.666;2022-10-16T07:31:10;13.30;99.90
58096;DHT22;43908;53.038;6.666;2022-10-16T07:33:36;13.30;99.90
58096;DHT22;43908;53.038;6.666;2022-10-16T07:36:02;13.40;99.90
58096;DHT22;43908;53.038;6.666;2022-10-16T07:38:28;13.40;99.90
58096;DHT22;43908;53.038;6.666;2022-10-16T07:40:55;13.50;99.90
58096;DHT22;43908;53.038;6.666;2022-10-16T07:43:21;13.50;99.90
58096;DHT22;43908;53.038;6.666;2022-10-16T07:45:47;13.50;99.90
58096;DHT22;43908;53.038;6.666;2022-10-16T07:48:13;13.50;99.90
58096;DHT22;43908;53.038;6.666;2022-10-16T07:50:39;13.50;99.90
58096;DHT22;43908;53.038;6.666;2022-10-16T07:53:04;13.50;99.90
58096;DHT22;43908;53.038;6.666;2022-10-16T07:55:30;13.50;99.90
58096;DHT22;43908;53.038;6.666;2022-10-16T07:57:55;13.60;99.90
58096;DHT22;43908;53.038;6.666;2022-10-16T08:00:21;13.60;99.90
58096;DHT22;43908;53.038;6.666;2022-10-16T08:02:46;13.60;99.90
58096;DHT22;43908;53.038;6.666;2022-10-16T08:05:12;13.60;99.90
58096;DHT22;43908;53.038;6.666;2022-10-16T08:07:37;13.60;99.90
58096;DHT22;43908;53.038;6.666;2022-10-16T08:10:03;13.50;99.90
58096;DHT22;43908;53.038;6.666;2022-10-16T08:12:29;13.50;99.90
58096;DHT22;43908;53.038;6.666;2022-10-16T08:14:54;13.50;99.90
58096;DHT22;43908;53.038;6.666;2022-10-16T08:17:19;13.50;99.90
58096;DHT22;43908;53.038;6.666;2022-10-16T08:19:45;13.60;99.90
58096;DHT22;43908;53.038;6.666;2022-10-16T08:22:12;13.60;99.90
58096;DHT22;43908;53.038;6.666;2022-10-16T08:24:38;13.70;99.90
58096;DHT22;43908;53.038;6.666;2022-10-16T08:27:03;13.80;99.90
58096;DHT22;43908;53.038;6.666;2022-10-16T08:29:29;13.90;99.90
58096;DHT22;43908;53.038;6.666;2022-10-16T08:31:54;14.00;99.90
58096;DHT22;43908;53.038;6.666;2022-10-16T08:34:20;14.10;99.90
58096;DHT22;43908;53.038;6.666;2022-10-16T08:36:45;14.10;99.90
58096;DHT22;43908;53.038;6.666;2022-10-16T08:39:11;14.20;99.90
58096;DHT22;43908;53.038;6.666;2022-10-16T08:44:18;14.20;99.90
58096;DHT22;43908;53.038;6.666;2022-10-16T08:49:13;14.30;99.90
58096;DHT22;43908;53.038;6.666;2022-10-16T08:51:41;14.20;99.90
58096;DHT22;43908;53.038;6.666;2022-10-16T08:56:38;14.30;99.90
58096;DHT22;43908;53.038;6.666;2022-10-16T08:59:04;14.40;99.90
58096;DHT22;43908;53.038;6.666;2022-10-16T09:01:45;14.50;99.90
58096;DHT22;43908;53.038;6.666;2022-10-16T09:04:22;14.50;99.90
58096;DHT22;43908;53.038;6.666;2022-10-16T09:06:53;14.60;99.90
58096;DHT22;43908;53.038;6.666;2022-10-16T09:16:53;14.80;99.90
58096;DHT22;43908;53.038;6.666;2022-10-16T09:19:29;14.90;99.90
58096;DHT22;43908;53.038;6.666;2022-10-16T09:21:56;15.00;99.90
58096;DHT22;43908;53.038;6.666;2022-10-16T09:24:25;15.10;99.90
58096;DHT22;43908;53.038;6.666;2022-10-16T09:26:51;15.20;99.90
58096;DHT22;43908;53.038;6.666;2022-10-16T09:29:17;15.20;99.90
58096;DHT22;43908;53.038;6.666;2022-10-16T09:31:45;15.30;99.90
58096;DHT22;43908;53.038;6.666;2022-10-16T09:34:53;15.20;99.90
58096;DHT22;43908;53.038;6.666;2022-10-16T09:37:00;15.20;99.90
58096;DHT22;43908;53.038;6.666;2022-10-16T09:39:26;15.40;99.90
58096;DHT22;43908;53.038;6.666;2022-10-16T09:41:52;15.40;99.90
58096;DHT22;43908;53.038;6.666;2022-10-16T09:44:19;15.40;99.90
58096;DHT22;43908;53.038;6.666;2022-10-16T09:46:46;15.40;99.90
58096;DHT22;43908;53.038;6.666;2022-10-16T09:49:21;15.50;99.90
58096;DHT22;43908;53.038;6.666;2022-10-16T09:51:47;15.50;99.90
58096;DHT22;43908;53.038;6.666;2022-10-16T09:54:14;15.60;99.90
58096;DHT22;43908;53.038;6.666;2022-10-16T09:56:40;15.60;99.90
58096;DHT22;43908;53.038;6.666;2022-10-16T09:59:16;15.70;99.90
58096;DHT22;43908;53.038;6.666;2022-10-16T10:04:10;15.80;99.90
58096;DHT22;43908;53.038;6.666;2022-10-16T10:06:37;15.90;99.90
58096;DHT22;43908;53.038;6.666;2022-10-16T10:14:08;15.90;99.90
58096;DHT22;43908;53.038;6.666;2022-10-16T10:16:37;16.00;99.90
58096;DHT22;43908;53.038;6.666;2022-10-16T10:19:03;16.00;99.90
58096;DHT22;43908;53.038;6.666;2022-10-16T10:21:28;16.10;99.90
58096;DHT22;43908;53.038;6.666;2022-10-16T10:23:57;16.20;99.90
58096;DHT22;43908;53.038;6.666;2022-10-16T10:26:24;16.10;99.90
58096;DHT22;43908;53.038;6.666;2022-10-16T10:36:49;16.40;99.90
58096;DHT22;43908;53.038;6.666;2022-10-16T10:39:32;16.40;99.90
58096;DHT22;43908;53.038;6.666;2022-10-16T10:44:37;16.60;99.90
58096;DHT22;43908;53.038;6.666;2022-10-16T10:47:11;16.50;99.90
58096;DHT22;43908;53.038;6.666;2022-10-16T10:55:23;16.50;99.90
58096;DHT22;43908;53.038;6.666;2022-10-16T10:57:53;16.50;99.90
58096;DHT22;43908;53.038;6.666;2022-10-16T11:00:39;16.50;99.90
58096;DHT22;43908;53.038;6.666;2022-10-16T11:06:06;16.50;99.90
58096;DHT22;43908;53.038;6.666;2022-10-16T11:08:38;16.50;99.90
58096;DHT22;43908;53.038;6.666;2022-10-16T11:11:07;16.50;99.90
58096;DHT22;43908;53.038;6.666;2022-10-16T11:16:21;16.50;99.90
58096;DHT22;43908;53.038;6.666;2022-10-16T11:21:35;16.30;99.90
58096;DHT22;43908;53.038;6.666;2022-10-16T11:24:09;16.10;99.90
58096;DHT22;43908;53.038;6.666;2022-10-16T11:26:40;16.10;99.90
58096;DHT22;43908;53.038;6.666;2022-10-16T11:29:10;16.10;99.90
58096;DHT22;43908;53.038;6.666;2022-10-16T11:41:41;16.50;99.90
58096;DHT22;43908;53.038;6.666;2022-10-16T11:46:51;16.40;99.90
58096;DHT22;43908;53.038;6.666;2022-10-16T11:49:21;16.30;99.90
58096;DHT22;43908;53.038;6.666;2022-10-16T11:51:48;16.30;99.90
58096;DHT22;43908;53.038;6.666;2022-10-16T11:54:20;16.30;99.90
58096;DHT22;43908;53.038;6.666;2022-10-16T11:56:46;16.30;99.90
58096;DHT22;43908;53.038;6.666;2022-10-16T11:59:17;16.30;99.90
58096;DHT22;43908;53.038;6.666;2022-10-16T12:01:50;16.40;99.90
58096;DHT22;43908;53.038;6.666;2022-10-16T12:04:39;16.40;99.90
58096;DHT22;43908;53.038;6.666;2022-10-16T12:07:14;16.60;99.90
58096;DHT22;43908;53.038;6.666;2022-10-16T12:09:41;16.60;99.90
58096;DHT22;43908;53.038;6.666;2022-10-16T12:15:36;16.90;99.90
58096;DHT22;43908;53.038;6.666;2022-10-16T12:17:37;16.90;99.90
58096;DHT22;43908;53.038;6.666;2022-10-16T12:22:40;17.00;99.90
58096;DHT22;43908;53.038;6.666;2022-10-16T12:25:19;17.10;99.90
58096;DHT22;43908;53.038;6.666;2022-10-16T12:27:45;17.20;99.90
58096;DHT22;43908;53.038;6.666;2022-10-16T12:30:14;17.20;99.90
58096;DHT22;43908;53.038;6.666;2022-10-16T12:32:44;17.20;99.90
58096;DHT22;43908;53.038;6.666;2022-10-16T12:35:21;17.20;99.90
58096;DHT22;43908;53.038;6.666;2022-10-16T12:37:48;17.20;99.90
58096;DHT22;43908;53.038;6.666;2022-10-16T12:42:40;17.20;99.90
58096;DHT22;43908;53.038;6.666;2022-10-16T12:47:50;17.10;99.90
58096;DHT22;43908;53.038;6.666;2022-10-16T12:50:23;17.00;99.90
58096;DHT22;43908;53.038;6.666;2022-10-16T12:52:49;17.00;99.90
58096;DHT22;43908;53.038;6.666;2022-10-16T12:55:19;17.00;99.90
58096;DHT22;43908;53.038;6.666;2022-10-16T12:58:00;17.00;99.90
58096;DHT22;43908;53.038;6.666;2022-10-16T13:00:44;16.90;99.90
58096;DHT22;43908;53.038;6.666;2022-10-16T13:06:07;17.10;99.90
58096;DHT22;43908;53.038;6.666;2022-10-16T13:16:28;17.50;99.90
58096;DHT22;43908;53.038;6.666;2022-10-16T13:21:30;17.60;99.90
58096;DHT22;43908;53.038;6.666;2022-10-16T13:24:13;17.60;99.90
58096;DHT22;43908;53.038;6.666;2022-10-16T13:29:05;17.60;99.90
58096;DHT22;43908;53.038;6.666;2022-10-16T13:31:31;17.60;99.90
58096;DHT22;43908;53.038;6.666;2022-10-16T13:33:57;17.60;99.90
58096;DHT22;43908;53.038;6.666;2022-10-16T13:36:28;17.60;98.80
58096;DHT22;43908;53.038;6.666;2022-10-16T13:39:09;17.50;99.80
58096;DHT22;43908;53.038;6.666;2022-10-16T13:41:36;17.50;99.40
58096;DHT22;43908;53.038;6.666;2022-10-16T13:44:01;17.40;98.90
58096;DHT22;43908;53.038;6.666;2022-10-16T13:46:27;17.40;99.90
58096;DHT22;43908;53.038;6.666;2022-10-16T13:49:02;17.40;99.00
58096;DHT22;43908;53.038;6.666;2022-10-16T13:51:29;17.30;99.90
58096;DHT22;43908;53.038;6.666;2022-10-16T13:53:55;17.30;99.90
58096;DHT22;43908;53.038;6.666;2022-10-16T13:56:22;17.20;99.90
58096;DHT22;43908;53.038;6.666;2022-10-16T13:59:01;17.10;99.90
58096;DHT22;43908;53.038;6.666;2022-10-16T14:01:28;17.00;99.90
58096;DHT22;43908;53.038;6.666;2022-10-16T14:03:59;16.90;99.90
58096;DHT22;43908;53.038;6.666;2022-10-16T14:06:25;16.80;99.90
58096;DHT22;43908;53.038;6.666;2022-10-16T14:08:56;16.80;99.90
58096;DHT22;43908;53.038;6.666;2022-10-16T14:11:24;16.80;99.90
58096;DHT22;43908;53.038;6.666;2022-10-16T14:13:50;16.80;99.90
58096;DHT22;43908;53.038;6.666;2022-10-16T14:16:23;16.70;99.90
58096;DHT22;43908;53.038;6.666;2022-10-16T14:21:23;16.60;99.90
58096;DHT22;43908;53.038;6.666;2022-10-16T14:23:49;16.60;99.90
58096;DHT22;43908;53.038;6.666;2022-10-16T14:26:16;16.50;99.90
58096;DHT22;43908;53.038;6.666;2022-10-16T14:28:42;16.50;99.90
58096;DHT22;43908;53.038;6.666;2022-10-16T14:31:25;16.40;99.90
58096;DHT22;43908;53.038;6.666;2022-10-16T14:33:50;16.40;99.90
58096;DHT22;43908;53.038;6.666;2022-10-16T14:36:16;16.20;99.90
58096;DHT22;43908;53.038;6.666;2022-10-16T14:41:29;16.10;99.90
58096;DHT22;43908;53.038;6.666;2022-10-16T14:43:55;16.00;99.90
58096;DHT22;43908;53.038;6.666;2022-10-16T14:46:22;16.00;99.90
58096;DHT22;43908;53.038;6.666;2022-10-16T14:48:54;15.90;99.90
58096;DHT22;43908;53.038;6.666;2022-10-16T14:51:22;15.90;99.90
58096;DHT22;43908;53.038;6.666;2022-10-16T14:53:49;15.90;99.90
58096;DHT22;43908;53.038;6.666;2022-10-16T14:56:16;15.80;99.90
58096;DHT22;43908;53.038;6.666;2022-10-16T14:58:42;15.80;99.90
58096;DHT22;43908;53.038;6.666;2022-10-16T15:01:08;15.70;99.90
58096;DHT22;43908;53.038;6.666;2022-10-16T15:03:36;15.70;99.90
58096;DHT22;43908;53.038;6.666;2022-10-16T15:06:01;15.70;99.90
58096;DHT22;43908;53.038;6.666;2022-10-16T15:08:27;15.70;99.90
58096;DHT22;43908;53.038;6.666;2022-10-16T15:10:52;15.60;99.90
58096;DHT22;43908;53.038;6.666;2022-10-16T15:13:18;15.60;99.90
58096;DHT22;43908;53.038;6.666;2022-10-16T15:15:44;15.60;99.90
58096;DHT22;43908;53.038;6.666;2022-10-16T15:18:09;15.60;99.90
58096;DHT22;43908;53.038;6.666;2022-10-16T15:20:36;15.50;99.90
58096;DHT22;43908;53.038;6.666;2022-10-16T15:23:02;15.40;99.90
58096;DHT22;43908;53.038;6.666;2022-10-16T15:25:30;15.50;99.90
58096;DHT22;43908;53.038;6.666;2022-10-16T15:27:56;15.40;99.90
58096;DHT22;43908;53.038;6.666;2022-10-16T15:30:22;15.40;99.90
58096;DHT22;43908;53.038;6.666;2022-10-16T15:32:47;15.40;99.90
58096;DHT22;43908;53.038;6.666;2022-10-16T15:35:13;15.30;99.90
58096;DHT22;43908;53.038;6.666;2022-10-16T15:37:38;15.20;99.90
58096;DHT22;43908;53.038;6.666;2022-10-16T15:40:04;15.20;99.90
58096;DHT22;43908;53.038;6.666;2022-10-16T15:42:29;15.10;99.90
58096;DHT22;43908;53.038;6.666;2022-10-16T15:44:55;15.10;99.90
58096;DHT22;43908;53.038;6.666;2022-10-16T15:47:20;15.00;99.90
58096;DHT22;43908;53.038;6.666;2022-10-16T15:49:46;14.90;99.90
58096;DHT22;43908;53.038;6.666;2022-10-16T15:52:11;14.80;99.90
58096;DHT22;43908;53.038;6.666;2022-10-16T15:54:36;14.80;99.90
58096;DHT22;43908;53.038;6.666;2022-10-16T15:57:02;14.70;99.90
58096;DHT22;43908;53.038;6.666;2022-10-16T15:59:27;14.60;99.90
58096;DHT22;43908;53.038;6.666;2022-10-16T16:01:53;14.50;99.90
58096;DHT22;43908;53.038;6.666;2022-10-16T16:04:18;14.50;99.90
58096;DHT22;43908;53.038;6.666;2022-10-16T16:06:44;14.40;99.90
58096;DHT22;43908;53.038;6.666;2022-10-16T16:09:10;14.30;99.90
58096;DHT22;43908;53.038;6.666;2022-10-16T16:11:36;14.20;99.90
58096;DHT22;43908;53.038;6.666;2022-10-16T16:14:07;14.10;99.90
58096;DHT22;43908;53.038;6.666;2022-10-16T16:16:32;14.10;99.90
58096;DHT22;43908;53.038;6.666;2022-10-16T16:19:03;14.00;99.90
58096;DHT22;43908;53.038;6.666;2022-10-16T16:21:28;13.90;99.90
58096;DHT22;43908;53.038;6.666;2022-10-16T16:23:54;13.90;99.90
58096;DHT22;43908;53.038;6.666;2022-10-16T16:26:23;13.80;99.90
58096;DHT22;43908;53.038;6.666;2022-10-16T16:28:53;13.70;99.90
58096;DHT22;43908;53.038;6.666;2022-10-16T16:31:19;13.60;99.90
58096;DHT22;43908;53.038;6.666;2022-10-16T16:33:45;13.50;99.90
58096;DHT22;43908;53.038;6.666;2022-10-16T16:36:11;13.50;99.90
58096;DHT22;43908;53.038;6.666;2022-10-16T16:38:36;13.40;99.90
58096;DHT22;43908;53.038;6.666;2022-10-16T16:44:01;13.30;99.90
58096;DHT22;43908;53.038;6.666;2022-10-16T16:46:34;13.20;99.90
58096;DHT22;43908;53.038;6.666;2022-10-16T16:48:59;13.10;99.90
58096;DHT22;43908;53.038;6.666;2022-10-16T16:51:25;13.00;99.90
58096;DHT22;43908;53.038;6.666;2022-10-16T16:53:51;12.90;99.90
58096;DHT22;43908;53.038;6.666;2022-10-16T16:56:17;12.80;99.90
58096;DHT22;43908;53.038;6.666;2022-10-16T16:58:44;12.80;99.90
58096;DHT22;43908;53.038;6.666;2022-10-16T17:01:10;12.70;99.90
58096;DHT22;43908;53.038;6.666;2022-10-16T17:03:36;12.70;99.90
58096;DHT22;43908;53.038;6.666;2022-10-16T17:06:05;12.60;99.90
58096;DHT22;43908;53.038;6.666;2022-10-16T17:08:31;12.50;99.90
58096;DHT22;43908;53.038;6.666;2022-10-16T17:10:57;12.50;99.90
58096;DHT22;43908;53.038;6.666;2022-10-16T17:13:26;12.40;99.90
58096;DHT22;43908;53.038;6.666;2022-10-16T17:15:52;12.30;99.90
58096;DHT22;43908;53.038;6.666;2022-10-16T17:18:18;12.20;99.90